createdAt,value
2022-11-20T00:01:13.704Z,35.00
2022-11-20T00:03:42.064Z,46.80
2022-11-20T00:06:11.800Z,42.27
2022-11-20T00:08:40.285Z,49.00
2022-11-20T00:11:15.279Z,49.90
2022-11-20T00:13:46.391Z,39.10
2022-11-20T00:16:17.298Z,46.17
2022-11-20T00:18:45.866Z,37.87
2022-11-20T00:21:16.277Z,36.80
2022-11-20T00:23:45.225Z,40.40
2022-11-20T00:26:14.803Z,40.37
2022-11-20T00:28:43.842Z,38.27
2022-11-20T00:31:14.774Z,39.37
2022-11-20T00:33:43.852Z,38.80
2022-11-20T00:36:13.309Z,39.13
2022-11-20T00:38:41.897Z,37.67
2022-11-20T00:41:11.513Z,42.30
2022-11-20T00:43:40.604Z,34.00
2022-11-20T00:46:09.831Z,39.03
2022-11-20T00:48:39.892Z,46.33
2022-11-20T00:51:08.501Z,42.90
2022-11-20T00:53:37.265Z,39.27
2022-11-20T00:56:06.625Z,46.13
2022-11-20T00:58:36.063Z,42.83
2022-11-20T01:01:05.325Z,38.10
2022-11-20T01:03:34.550Z,40.47
2022-11-20T01:06:05.300Z,40.53
2022-11-20T01:08:34.741Z,46.10
2022-11-20T01:11:04.210Z,39.93
2022-11-20T01:13:42.175Z,44.40
2022-11-20T01:16:12.813Z,36.47
2022-11-20T01:18:43.448Z,40.77
2022-11-20T01:21:15.098Z,38.63
2022-11-20T01:23:44.825Z,36.40
2022-11-20T01:26:15.557Z,41.30
2022-11-20T01:28:44.583Z,38.37
2022-11-20T01:31:14.966Z,40.77
2022-11-20T01:33:44.326Z,39.27
2022-11-20T01:36:14.586Z,40.30
2022-11-20T01:38:43.226Z,41.27
2022-11-20T01:41:33.230Z,39.50
2022-11-20T01:44:01.127Z,42.00
2022-11-20T01:46:30.146Z,37.23
2022-11-20T01:49:02.984Z,37.93
2022-11-20T01:51:36.364Z,44.53
2022-11-20T01:54:08.145Z,41.07
2022-11-20T01:56:40.527Z,42.07
2022-11-20T01:59:10.502Z,41.07
2022-11-20T02:01:40.223Z,39.47
2022-11-20T02:04:11.633Z,40.23
2022-11-20T02:06:43.776Z,39.87
2022-11-20T02:09:12.584Z,51.57
2022-11-20T02:11:41.280Z,49.87
2022-11-20T02:14:08.828Z,49.00
2022-11-20T02:16:39.340Z,46.50
2022-11-20T02:19:10.631Z,48.70
2022-11-20T02:21:43.063Z,53.07
2022-11-20T02:24:16.119Z,45.17
2022-11-20T02:26:49.447Z,51.10
2022-11-20T02:29:20.387Z,50.73
2022-11-20T02:31:49.113Z,54.40
2022-11-20T02:34:17.775Z,51.20
2022-11-20T02:36:47.684Z,50.43
2022-11-20T02:39:19.119Z,47.30
2022-11-20T02:41:47.623Z,50.63
2022-11-20T02:44:16.091Z,48.63
2022-11-20T02:46:44.465Z,51.80
2022-11-20T02:49:13.136Z,55.50
2022-11-20T02:51:41.626Z,53.77
2022-11-20T02:54:10.200Z,49.40
2022-11-20T02:56:41.824Z,48.90
2022-11-20T02:59:10.469Z,50.80
2022-11-20T03:01:38.971Z,45.87
2022-11-20T03:04:07.501Z,53.67
2022-11-20T03:06:36.057Z,54.80
2022-11-20T03:09:04.782Z,51.03
2022-11-20T03:11:33.224Z,47.37
2022-11-20T03:14:05.602Z,47.93
2022-11-20T03:16:34.370Z,43.37
2022-11-20T03:19:02.984Z,48.87
2022-11-20T03:21:31.412Z,49.73
2022-11-20T03:23:59.668Z,43.50
2022-11-20T03:26:29.108Z,47.83
2022-11-20T03:28:58.438Z,50.60
2022-11-20T03:31:29.261Z,46.93
2022-11-20T03:33:58.938Z,43.77
2022-11-20T03:36:27.384Z,46.67
2022-11-20T03:38:56.480Z,40.67
2022-11-20T03:41:26.113Z,39.17
2022-11-20T03:43:55.297Z,42.87
2022-11-20T03:46:23.962Z,44.10
2022-11-20T03:48:54.332Z,43.90
2022-11-20T03:51:23.881Z,43.70
2022-11-20T03:53:53.493Z,41.83
2022-11-20T03:56:23.638Z,39.43
2022-11-20T03:58:52.136Z,47.93
2022-11-20T04:01:22.161Z,43.30
2022-11-20T04:03:51.291Z,44.80
2022-11-20T04:06:22.229Z,47.60
2022-11-20T04:08:53.866Z,40.67
2022-11-20T04:11:24.374Z,47.63
2022-11-20T04:13:54.272Z,46.45
2022-11-20T04:16:23.762Z,42.10
2022-11-20T04:18:55.882Z,40.70
2022-11-20T04:21:26.421Z,45.83
2022-11-20T04:23:54.874Z,45.40
2022-11-20T04:26:24.448Z,42.92
2022-11-20T04:28:52.743Z,40.60
2022-11-20T04:31:22.781Z,40.53
2022-11-20T04:33:51.269Z,42.00
2022-11-20T04:36:21.356Z,44.10
2022-11-20T04:38:56.798Z,38.47
2022-11-20T04:41:27.637Z,40.63
2022-11-20T04:44:00.594Z,48.70
2022-11-20T04:46:29.793Z,44.00
2022-11-20T04:48:58.682Z,44.17
2022-11-20T04:51:27.267Z,48.40
2022-11-20T04:53:57.409Z,49.17
2022-11-20T04:56:25.865Z,46.67
2022-11-20T04:58:54.432Z,48.70
2022-11-20T05:01:25.231Z,49.30
2022-11-20T05:03:54.182Z,41.10
2022-11-20T05:06:24.920Z,47.33
2022-11-20T05:08:53.788Z,44.77
2022-11-20T05:11:23.861Z,51.97
2022-11-20T05:13:53.212Z,48.63
2022-11-20T05:16:22.916Z,50.97
2022-11-20T05:18:51.780Z,48.80
2022-11-20T05:21:20.266Z,51.03
2022-11-20T05:23:48.951Z,49.77
2022-11-20T05:26:18.226Z,50.30
2022-11-20T05:28:48.150Z,51.40
2022-11-20T05:31:21.972Z,49.30
2022-11-20T05:33:53.993Z,60.73
2022-11-20T05:36:22.456Z,50.30
2022-11-20T05:38:52.333Z,55.90
2022-11-20T05:41:22.852Z,67.17
2022-11-20T05:43:52.842Z,59.43
2022-11-20T05:46:27.847Z,62.33
2022-11-20T05:48:57.518Z,65.03
2022-11-20T05:51:26.394Z,70.63
2022-11-20T05:53:54.928Z,65.03
2022-11-20T05:56:24.050Z,66.97
2022-11-20T05:58:53.802Z,66.20
2022-11-20T06:01:23.643Z,58.87
2022-11-20T06:03:52.451Z,67.13
2022-11-20T06:06:21.763Z,64.83
2022-11-20T06:08:50.688Z,66.10
2022-11-20T06:11:19.390Z,71.50
2022-11-20T06:13:48.115Z,61.47
2022-11-20T06:16:19.549Z,62.50
2022-11-20T06:18:48.079Z,60.77
2022-11-20T06:21:17.137Z,57.17
2022-11-20T06:23:46.125Z,61.73
2022-11-20T06:26:15.671Z,63.33
2022-11-20T06:28:44.443Z,58.97
2022-11-20T06:31:14.343Z,65.27
2022-11-20T06:33:44.952Z,66.47
2022-11-20T06:36:13.781Z,61.53
2022-11-20T06:38:42.556Z,63.90
2022-11-20T06:41:13.776Z,63.58
2022-11-20T06:43:42.334Z,66.43
2022-11-20T06:46:11.727Z,60.93
2022-11-20T06:48:40.471Z,59.27
2022-11-20T06:51:10.542Z,60.07
2022-11-20T06:53:39.205Z,67.70
2022-11-20T06:56:07.946Z,60.30
2022-11-20T06:58:37.431Z,61.97
2022-11-20T07:01:07.032Z,60.17
2022-11-20T07:03:35.994Z,57.23
2022-11-20T07:06:04.636Z,54.50
2022-11-20T07:08:34.979Z,58.17
2022-11-20T07:11:03.853Z,54.90
2022-11-20T07:13:32.465Z,52.90
2022-11-20T07:16:02.783Z,52.50
2022-11-20T07:18:31.336Z,56.05
2022-11-20T07:21:02.737Z,64.10
2022-11-20T07:23:31.311Z,54.65
2022-11-20T07:26:04.990Z,45.53
2022-11-20T07:28:33.700Z,63.70
2022-11-20T07:31:02.230Z,48.10
2022-11-20T07:33:30.677Z,54.42
2022-11-20T07:36:01.083Z,47.88
2022-11-20T07:38:29.762Z,43.67
2022-11-20T07:40:58.730Z,51.05
2022-11-20T07:43:28.850Z,50.95
2022-11-20T07:45:58.077Z,49.03
2022-11-20T07:48:26.654Z,45.70
2022-11-20T07:50:56.360Z,58.55
2022-11-20T07:53:25.083Z,51.03
2022-11-20T07:55:53.813Z,57.38
2022-11-20T07:58:22.462Z,59.78
2022-11-20T08:00:52.330Z,57.13
2022-11-20T08:03:24.969Z,61.15
2022-11-20T08:05:54.658Z,62.95
2022-11-20T08:08:23.891Z,52.30
2022-11-20T08:10:52.487Z,64.82
2022-11-20T08:13:38.870Z,61.92
2022-11-20T08:16:08.833Z,60.33
2022-11-20T08:18:37.441Z,62.97
2022-11-20T08:21:06.071Z,66.13
2022-11-20T08:23:34.660Z,59.03
2022-11-20T08:26:03.305Z,62.60
2022-11-20T08:28:31.953Z,57.47
2022-11-20T08:31:00.972Z,61.10
2022-11-20T08:33:30.939Z,72.22
2022-11-20T08:36:01.409Z,62.88
2022-11-20T08:38:30.164Z,61.22
2022-11-20T08:41:16.802Z,74.50
2022-11-20T08:43:45.427Z,68.63
2022-11-20T08:46:13.935Z,60.28
2022-11-20T08:48:43.868Z,48.03
2022-11-20T08:51:12.733Z,57.72
2022-11-20T08:53:41.302Z,66.82
2022-11-20T08:56:10.595Z,59.22
2022-11-20T08:59:01.816Z,59.92
2022-11-20T09:01:27.811Z,54.53
2022-11-20T09:04:00.695Z,50.78
2022-11-20T09:06:29.190Z,58.30
2022-11-20T09:09:02.048Z,54.05
2022-11-20T09:11:33.670Z,57.03
2022-11-20T09:14:03.790Z,48.78
2022-11-20T09:16:32.388Z,49.08
2022-11-20T09:19:28.648Z,41.90
2022-11-20T09:21:50.621Z,43.10
2022-11-20T09:24:19.228Z,46.58
2022-11-20T09:26:47.793Z,41.97
2022-11-20T09:29:16.401Z,38.88
2022-11-20T09:31:44.996Z,36.58
2022-11-20T09:34:14.808Z,33.55
2022-11-20T09:36:43.356Z,34.38
2022-11-20T09:39:11.877Z,37.65
2022-11-20T09:41:51.374Z,38.83
2022-11-20T09:44:29.000Z,31.45
2022-11-20T09:46:59.811Z,35.10
2022-11-20T09:49:34.937Z,40.67
2022-11-20T09:52:11.449Z,31.10
2022-11-20T09:54:42.080Z,33.00
2022-11-20T09:57:13.623Z,29.73
2022-11-20T09:59:44.632Z,24.23
2022-11-20T10:02:30.211Z,20.55
2022-11-20T10:05:06.209Z,29.50
2022-11-20T10:07:42.431Z,23.25
2022-11-20T10:10:17.197Z,19.15
2022-11-20T10:13:03.254Z,19.05
2022-11-20T10:15:36.460Z,20.60
2022-11-20T10:18:23.012Z,17.08
2022-11-20T10:21:02.361Z,15.88
2022-11-20T10:23:56.418Z,14.73
2022-11-20T10:26:31.818Z,14.23
2022-11-20T10:29:12.216Z,16.50
2022-11-20T10:31:42.122Z,9.35
2022-11-20T10:34:21.026Z,10.35
2022-11-20T10:36:55.775Z,12.00
2022-11-20T10:39:28.691Z,7.82
2022-11-20T10:41:57.243Z,9.75
2022-11-20T10:44:46.572Z,10.07
2022-11-20T10:47:16.900Z,8.60
2022-11-20T10:49:46.059Z,10.68
2022-11-20T10:52:19.603Z,8.65
2022-11-20T10:54:51.600Z,8.20
2022-11-20T10:57:23.626Z,8.70
2022-11-20T11:00:02.684Z,9.48
2022-11-20T11:02:35.518Z,6.82
2022-11-20T11:05:14.404Z,8.60
2022-11-20T11:07:45.000Z,3.88
2022-11-20T11:10:17.458Z,5.68
2022-11-20T11:12:48.322Z,4.57
2022-11-20T11:15:17.915Z,10.38
2022-11-20T11:17:49.867Z,4.97
2022-11-20T11:20:19.982Z,5.97
2022-11-20T11:22:51.103Z,6.25
2022-11-20T11:25:23.583Z,5.25
2022-11-20T11:27:52.867Z,5.63
2022-11-20T11:30:22.434Z,2.92
2022-11-20T11:32:51.567Z,3.25
2022-11-20T11:35:24.370Z,3.65
2022-11-20T11:37:55.149Z,5.18
2022-11-20T11:40:27.937Z,3.63
2022-11-20T11:43:04.480Z,2.42
2022-11-20T11:45:31.920Z,4.63
2022-11-20T11:48:01.091Z,3.47
2022-11-20T11:50:30.133Z,3.30
2022-11-20T11:53:11.938Z,3.60
2022-11-20T11:55:42.883Z,4.90
2022-11-20T11:58:17.554Z,8.85
2022-11-20T12:00:50.172Z,7.78
2022-11-20T12:03:21.801Z,5.70
2022-11-20T12:05:52.289Z,6.47
2022-11-20T12:08:24.325Z,4.93
2022-11-20T12:10:55.655Z,7.43
2022-11-20T12:13:28.742Z,7.50
2022-11-20T12:15:57.181Z,10.20
2022-11-20T12:18:26.216Z,12.65
2022-11-20T12:21:00.551Z,12.55
2022-11-20T12:23:34.251Z,8.38
2022-11-20T12:26:06.694Z,12.00
2022-11-20T12:28:41.396Z,8.30
2022-11-20T12:31:21.993Z,11.55
2022-11-20T12:33:57.426Z,9.35
2022-11-20T12:36:30.901Z,13.23
2022-11-20T12:39:11.035Z,11.40
2022-11-20T12:42:04.332Z,12.70
2022-11-20T12:44:59.344Z,9.65
2022-11-20T12:47:32.990Z,11.00
2022-11-20T12:50:05.457Z,11.40
2022-11-20T12:52:41.393Z,9.68
2022-11-20T12:55:30.423Z,9.05
2022-11-20T12:58:03.962Z,4.72
2022-11-20T13:00:35.383Z,10.02
2022-11-20T13:03:20.288Z,6.47
2022-11-20T13:05:57.890Z,9.73
2022-11-20T13:08:27.444Z,6.90
2022-11-20T13:10:59.484Z,4.55
2022-11-20T13:13:34.403Z,4.82
2022-11-20T13:16:04.913Z,8.43
2022-11-20T13:18:38.074Z,6.18
2022-11-20T13:21:15.942Z,7.35
2022-11-20T13:23:44.704Z,6.93
2022-11-20T13:26:22.044Z,6.82
2022-11-20T13:29:04.297Z,5.68
2022-11-20T13:31:34.336Z,6.78
2022-11-20T13:34:04.735Z,4.38
2022-11-20T13:36:35.982Z,5.15
2022-11-20T13:39:04.536Z,5.65
2022-11-20T13:41:35.162Z,3.35
2022-11-20T13:44:16.704Z,5.97
2022-11-20T13:46:46.237Z,3.10
2022-11-20T13:49:20.454Z,3.50
2022-11-20T13:51:51.699Z,3.92
2022-11-20T13:54:38.539Z,4.82
2022-11-20T13:57:15.099Z,4.70
2022-11-20T13:59:54.147Z,4.18
2022-11-20T14:02:24.042Z,3.17
2022-11-20T14:04:54.076Z,3.35
2022-11-20T14:07:25.393Z,3.22
2022-11-20T14:09:55.085Z,3.25
2022-11-20T14:12:24.963Z,2.60
2022-11-20T14:14:55.933Z,3.22
2022-11-20T14:17:26.355Z,2.67
2022-11-20T14:19:55.764Z,3.50
2022-11-20T14:22:25.557Z,1.52
2022-11-20T14:25:04.136Z,2.25
2022-11-20T14:27:36.465Z,3.33
2022-11-20T14:30:07.263Z,1.77
2022-11-20T14:32:38.363Z,2.45
2022-11-20T14:35:10.935Z,2.40
2022-11-20T14:37:41.026Z,2.45
2022-11-20T14:40:25.220Z,2.28
2022-11-20T14:42:53.898Z,2.30
2022-11-20T14:45:24.627Z,2.92
2022-11-20T14:47:53.832Z,4.28
2022-11-20T14:50:23.445Z,2.72
2022-11-20T14:52:55.595Z,3.15
2022-11-20T14:55:31.698Z,3.58
2022-11-20T14:58:01.473Z,3.90
2022-11-20T15:00:31.938Z,4.55
2022-11-20T15:03:00.627Z,4.13
2022-11-20T15:05:46.647Z,4.20
2022-11-20T15:08:15.839Z,4.07
2022-11-20T15:10:48.344Z,3.67
2022-11-20T15:13:18.429Z,4.82
2022-11-20T15:15:49.925Z,4.88
2022-11-20T15:18:19.477Z,3.42
2022-11-20T15:20:48.621Z,3.58
2022-11-20T15:23:19.316Z,7.22
2022-11-20T15:25:48.365Z,4.35
2022-11-20T15:28:19.698Z,5.28
2022-11-20T15:30:50.530Z,7.05
2022-11-20T15:33:19.682Z,8.07
2022-11-20T15:35:48.476Z,8.02
2022-11-20T15:38:17.086Z,7.90
2022-11-20T15:40:45.536Z,6.93
2022-11-20T15:43:14.189Z,6.68
2022-11-20T15:45:44.312Z,6.38
2022-11-20T15:48:15.357Z,6.75
2022-11-20T15:50:49.366Z,8.43
2022-11-20T15:53:18.190Z,7.30
2022-11-20T15:55:46.740Z,9.85
2022-11-20T15:58:15.390Z,8.73
2022-11-20T16:00:45.409Z,10.50
2022-11-20T16:03:15.814Z,11.85
2022-11-20T16:05:44.732Z,12.80
2022-11-20T16:08:13.309Z,9.98
2022-11-20T16:10:41.969Z,15.90
2022-11-20T16:13:32.275Z,18.38
2022-11-20T16:16:02.118Z,11.32
2022-11-20T16:18:32.158Z,10.57
2022-11-20T16:21:00.759Z,16.23
2022-11-20T16:23:29.452Z,8.20
2022-11-20T16:25:57.963Z,11.77
2022-11-20T16:28:26.454Z,9.02
2022-11-20T16:30:55.405Z,11.35
2022-11-20T16:33:24.200Z,10.85
2022-11-20T16:35:54.125Z,20.48
2022-11-20T16:38:22.546Z,16.02
2022-11-20T16:40:50.971Z,13.88
2022-11-20T16:43:19.590Z,24.05
2022-11-20T16:45:47.971Z,13.55
2022-11-20T16:48:17.149Z,19.20
2022-11-20T16:50:50.010Z,19.25
2022-11-20T16:53:20.532Z,15.80
2022-11-20T16:55:49.232Z,13.95
2022-11-20T16:58:17.781Z,14.88
2022-11-20T17:00:51.403Z,11.10
2022-11-20T17:03:21.080Z,15.90
2022-11-20T17:05:49.629Z,13.48
2022-11-20T17:08:18.298Z,21.88
2022-11-20T17:10:48.191Z,14.75
2022-11-20T17:13:16.627Z,14.25
2022-11-20T17:15:45.162Z,11.15
2022-11-20T17:18:13.578Z,14.35
2022-11-20T17:20:41.994Z,17.52
2022-11-20T17:23:10.656Z,12.30
2022-11-20T17:25:39.321Z,12.73
2022-11-20T17:28:09.065Z,22.38
2022-11-20T17:30:37.564Z,16.80
2022-11-20T17:33:06.163Z,15.93
2022-11-20T17:35:34.547Z,14.23
2022-11-20T17:38:03.096Z,12.55
2022-11-20T17:40:32.558Z,14.15
2022-11-20T17:43:00.999Z,17.95
2022-11-20T17:45:30.765Z,15.85
2022-11-20T17:47:59.451Z,9.73
2022-11-20T17:50:27.922Z,10.68
2022-11-20T17:52:56.605Z,12.20
2022-11-20T17:55:25.001Z,59.60
2022-11-20T17:57:52.722Z,9.55
2022-11-20T18:00:22.247Z,5.93
2022-11-20T18:02:52.297Z,13.27
2022-11-20T18:05:20.835Z,11.90
2022-11-20T18:07:53.706Z,18.55
2022-11-20T18:10:22.298Z,19.10
2022-11-20T18:12:50.939Z,14.57
2022-11-20T18:15:19.508Z,15.68
2022-11-20T18:17:48.136Z,16.55
2022-11-20T18:20:29.346Z,14.88
2022-11-20T18:23:00.131Z,18.70
2022-11-20T18:25:28.669Z,23.33
2022-11-20T18:27:57.390Z,22.27
2022-11-20T18:30:25.876Z,17.30
2022-11-20T18:32:55.526Z,11.43
2022-11-20T18:35:25.313Z,20.08
2022-11-20T18:37:53.852Z,11.80
2022-11-20T18:40:22.241Z,16.92
2022-11-20T18:43:08.502Z,20.83
2022-11-20T18:45:36.982Z,16.73
2022-11-20T18:48:06.211Z,10.60
2022-11-20T18:50:36.145Z,17.55
2022-11-20T18:53:05.647Z,16.65
2022-11-20T18:55:34.133Z,15.32
2022-11-20T18:58:05.535Z,14.35
2022-11-20T19:00:34.483Z,14.55
2022-11-20T19:03:03.398Z,13.70
2022-11-20T19:05:32.136Z,18.50
2022-11-20T19:08:02.132Z,13.68
2022-11-20T19:10:30.981Z,14.45
2022-11-20T19:12:59.562Z,12.80
2022-11-20T19:15:28.152Z,10.70
2022-11-20T19:17:57.757Z,13.52
2022-11-20T19:20:27.089Z,15.70
2022-11-20T19:22:55.793Z,23.40
2022-11-20T19:25:25.721Z,13.15
2022-11-20T19:27:54.381Z,13.48
2022-11-20T19:30:22.831Z,10.40
2022-11-20T19:32:51.356Z,12.73
2022-11-20T19:35:19.880Z,19.10
2022-11-20T19:37:48.596Z,21.67
2022-11-20T19:40:17.479Z,13.60
2022-11-20T19:42:47.378Z,17.27
2022-11-20T19:45:15.913Z,13.10
2022-11-20T19:50:33.288Z,10.30
2022-11-20T19:53:01.893Z,13.35
2022-11-20T19:55:30.292Z,16.88
2022-11-20T19:58:00.581Z,13.43
2022-11-20T20:00:32.867Z,11.57
2022-11-20T20:03:02.099Z,12.38
2022-11-20T20:05:30.750Z,13.60
2022-11-20T20:07:59.386Z,11.45
2022-11-20T20:10:28.136Z,12.27
2022-11-20T20:12:57.163Z,16.40
2022-11-20T20:15:27.217Z,10.75
2022-11-20T20:17:56.015Z,12.35
2022-11-20T20:20:24.967Z,11.50
2022-11-20T20:22:53.572Z,9.77
2022-11-20T20:25:22.087Z,13.15
2022-11-20T20:27:50.710Z,16.77
2022-11-20T20:30:19.325Z,15.57
2022-11-20T20:32:54.832Z,12.07
2022-11-20T20:35:24.718Z,12.30
2022-11-20T20:37:53.293Z,16.75
2022-11-20T20:40:21.875Z,14.75
2022-11-20T20:42:50.481Z,12.10
2022-11-20T20:45:18.952Z,14.23
2022-11-20T20:47:48.668Z,11.65
2022-11-20T20:50:17.272Z,13.75
2022-11-20T20:52:45.869Z,13.20
2022-11-20T20:55:14.555Z,13.02
2022-11-20T20:57:43.178Z,12.60
2022-11-20T21:00:11.824Z,11.88
2022-11-20T21:02:40.317Z,13.52
2022-11-20T21:05:10.879Z,17.30
2022-11-20T21:07:59.269Z,17.35
2022-11-20T21:10:27.854Z,13.85
2022-11-20T21:12:56.627Z,17.63
2022-11-20T21:15:25.067Z,12.38
2022-11-20T21:17:53.747Z,14.75
2022-11-20T21:20:41.170Z,14.32
2022-11-20T21:23:12.722Z,15.75
2022-11-20T21:25:41.495Z,11.02
2022-11-20T21:28:14.228Z,10.30
2022-11-20T21:30:45.438Z,15.98
2022-11-20T21:33:14.222Z,14.13
2022-11-20T21:35:44.111Z,18.42
2022-11-20T21:38:12.613Z,10.73
2022-11-20T21:40:41.183Z,13.70
2022-11-20T21:43:09.833Z,14.57
2022-11-20T21:45:38.492Z,12.15
2022-11-20T21:48:07.480Z,16.58
2022-11-20T21:50:36.459Z,12.80
2022-11-20T21:53:06.215Z,10.98
2022-11-20T21:55:35.064Z,9.95
2022-11-20T21:58:03.626Z,10.80
2022-11-20T22:00:32.078Z,11.23
2022-11-20T22:03:01.414Z,10.27
2022-11-20T22:05:29.932Z,12.32
2022-11-20T22:07:58.309Z,6.30
2022-11-20T22:10:28.828Z,12.95
2022-11-20T22:13:18.112Z,11.48
2022-11-20T22:16:00.403Z,13.25
2022-11-20T22:18:29.485Z,11.38
2022-11-20T22:20:57.974Z,8.63
2022-11-20T22:23:26.805Z,6.78
2022-11-20T22:25:56.509Z,6.25
2022-11-20T22:28:25.018Z,6.20
2022-11-20T22:30:53.547Z,5.47
2022-11-20T22:33:22.316Z,5.07
2022-11-20T22:35:50.836Z,2.95
2022-11-20T22:38:19.477Z,1.35
2022-11-20T22:40:48.569Z,2.47
2022-11-20T22:43:20.030Z,1.08
2022-11-20T22:45:48.658Z,2.10
2022-11-20T22:48:17.127Z,1.80
2022-11-20T22:50:45.683Z,0.65
2022-11-20T22:53:14.249Z,0.68
2022-11-20T22:55:42.766Z,1.30
2022-11-20T22:58:11.594Z,0.80
2022-11-20T23:00:41.380Z,2.53
2022-11-20T23:03:09.980Z,3.10
2022-11-20T23:05:38.661Z,2.28
2022-11-20T23:08:07.135Z,3.20
2022-11-20T23:10:35.688Z,5.22
2022-11-20T23:13:04.099Z,6.82
2022-11-20T23:15:32.615Z,1.63
2022-11-20T23:18:02.322Z,6.45
2022-11-20T23:20:30.973Z,5.65
2022-11-20T23:22:59.447Z,4.55
2022-11-20T23:25:27.973Z,7.78
2022-11-20T23:27:56.760Z,6.68
2022-11-20T23:30:25.204Z,7.30
2022-11-20T23:32:53.643Z,8.77
2022-11-20T23:35:23.386Z,5.78
2022-11-20T23:37:51.824Z,7.78
2022-11-20T23:40:20.450Z,13.27
2022-11-20T23:43:02.975Z,4.45
2022-11-20T23:45:31.643Z,12.55
2022-11-20T23:48:00.097Z,10.63
2022-11-20T23:50:30.379Z,4.38
2022-11-20T23:52:58.963Z,7.43
2022-11-20T23:55:27.638Z,8.02
2022-11-20T23:57:56.055Z,5.78
